Time;durP1;ratioP1;P1;durP2;ratioP2;P2;SDS_P1;SDS_P2;PMS_P1;PMS_P2;Temp;Humidity;BMP_temperature;BMP_pressure;BME280_temperature;BME280_humidity;BME280_pressure;Samples;Min_cycle;Max_cycle;Signal;HPM_P1;HPM_P2
2023/11/23 00:03:59;;;;;;;;;;;8.30;99.90;;;;;;8403468;28;19931;-70
2023/11/23 00:08:01;;;;;;;;;;;8.30;99.90;;;;;;8403948;28;19970;-71
2023/11/23 00:12:03;;;;;;;;;;;8.40;99.90;;;;;;8412374;28;19931;-70
2023/11/23 00:16:05;;;;;;;;;;;8.40;99.90;;;;;;8388635;28;19985;-70
2023/11/23 00:20:09;;;;;;;;;;;8.40;99.90;;;;;;8403406;28;19928;-70
2023/11/23 00:24:10;;;;;;;;;;;8.50;99.90;;;;;;8388219;28;19983;-71
2023/11/23 00:28:12;;;;;;;;;;;8.50;99.90;;;;;;8383844;28;19932;-71
2023/11/23 00:32:14;;;;;;;;;;;8.60;99.90;;;;;;8415007;28;19931;-70
2023/11/23 00:36:16;;;;;;;;;;;8.60;99.90;;;;;;8389776;28;19924;-71
2023/11/23 00:40:17;;;;;;;;;;;8.60;99.90;;;;;;8405765;28;19932;-71
2023/11/23 00:44:19;;;;;;;;;;;8.70;99.90;;;;;;8399556;28;20021;-71
2023/11/23 00:48:21;;;;;;;;;;;8.70;99.90;;;;;;8398377;28;19932;-71
2023/11/23 00:52:22;;;;;;;;;;;8.80;99.90;;;;;;8394842;28;19958;-70
2023/11/23 00:56:24;;;;;;;;;;;8.80;99.90;;;;;;8411146;28;19924;-70
2023/11/23 01:00:26;;;;;;;;;;;8.90;99.90;;;;;;8384913;28;19931;-71
2023/11/23 01:04:28;;;;;;;;;;;8.90;99.90;;;;;;8399990;28;19925;-70
2023/11/23 01:08:29;;;;;;;;;;;9.00;99.90;;;;;;8372629;28;19933;-70
2023/11/23 01:12:31;;;;;;;;;;;9.00;99.90;;;;;;8403373;28;19973;-71
2023/11/23 01:16:33;;;;;;;;;;;9.00;99.90;;;;;;8387397;28;19924;-71
2023/11/23 01:20:35;;;;;;;;;;;9.10;99.90;;;;;;8391181;28;20349;-71
2023/11/23 01:24:36;;;;;;;;;;;9.10;99.90;;;;;;8407195;28;19924;-70
2023/11/23 01:28:38;;;;;;;;;;;9.10;99.90;;;;;;8389155;28;19925;-71
2023/11/23 01:32:40;;;;;;;;;;;9.20;99.90;;;;;;8387341;28;19928;-70
2023/11/23 01:36:42;;;;;;;;;;;9.20;99.90;;;;;;8391867;28;19936;-71
2023/11/23 01:40:43;;;;;;;;;;;9.30;99.90;;;;;;8381993;28;20283;-71
2023/11/23 01:44:45;;;;;;;;;;;9.30;99.90;;;;;;8386635;28;19924;-70
2023/11/23 01:48:47;;;;;;;;;;;9.30;99.90;;;;;;8399570;28;19928;-71
2023/11/23 01:52:48;;;;;;;;;;;9.40;99.90;;;;;;8384989;28;19934;-71
2023/11/23 01:56:51;;;;;;;;;;;9.40;99.90;;;;;;8390414;28;19932;-71
2023/11/23 02:00:53;;;;;;;;;;;9.40;99.90;;;;;;8380402;28;20341;-70
2023/11/23 02:04:57;;;;;;;;;;;9.40;99.90;;;;;;8400590;28;19925;-71
2023/11/23 02:08:59;;;;;;;;;;;9.40;99.90;;;;;;8398801;28;19995;-71
2023/11/23 02:13:01;;;;;;;;;;;9.40;99.90;;;;;;8397567;28;19934;-71
2023/11/23 02:17:18;;;;;;;;;;;9.50;99.90;;;;;;8369942;28;19932;-71
2023/11/23 02:21:20;;;;;;;;;;;9.50;99.90;;;;;;8394309;28;19974;-71
2023/11/23 02:25:22;;;;;;;;;;;9.50;99.90;;;;;;8384201;28;20269;-70
2023/11/23 02:29:23;;;;;;;;;;;9.50;99.90;;;;;;8377827;28;20418;-71
2023/11/23 02:33:25;;;;;;;;;;;9.50;99.90;;;;;;8399031;28;20300;-70
2023/11/23 02:37:27;;;;;;;;;;;9.50;99.90;;;;;;8387321;28;19932;-71
2023/11/23 02:41:28;;;;;;;;;;;9.60;99.90;;;;;;8379497;28;19934;-71
2023/11/23 02:45:30;;;;;;;;;;;9.60;99.90;;;;;;8383248;28;19924;-70
2023/11/23 02:49:32;;;;;;;;;;;9.60;99.90;;;;;;8405081;28;19946;-70
2023/11/23 02:53:42;;;;;;;;;;;9.60;99.90;;;;;;8396308;28;19924;-70
2023/11/23 02:57:45;;;;;;;;;;;9.60;99.90;;;;;;8395734;28;20379;-71
2023/11/23 03:01:47;;;;;;;;;;;9.60;99.90;;;;;;8393263;28;19924;-70
2023/11/23 03:05:49;;;;;;;;;;;9.50;99.90;;;;;;8396898;28;20001;-70
2023/11/23 03:09:50;;;;;;;;;;;9.50;99.90;;;;;;8399991;28;19971;-71
2023/11/23 03:13:53;;;;;;;;;;;9.50;99.90;;;;;;8389294;28;21204;-71
2023/11/23 03:17:55;;;;;;;;;;;9.60;99.90;;;;;;8374744;28;19928;-71
2023/11/23 03:21:57;;;;;;;;;;;9.50;99.90;;;;;;8406216;28;19947;-71
2023/11/23 03:25:59;;;;;;;;;;;9.60;99.90;;;;;;8397193;28;19935;-71
2023/11/23 03:30:01;;;;;;;;;;;9.50;99.90;;;;;;8402062;28;20270;-70
2023/11/23 03:34:02;;;;;;;;;;;9.50;99.90;;;;;;8404907;28;19924;-71
2023/11/23 03:38:04;;;;;;;;;;;9.50;99.90;;;;;;8383929;28;20379;-71
2023/11/23 03:42:06;;;;;;;;;;;9.50;99.90;;;;;;8404660;28;19932;-70
2023/11/23 03:46:08;;;;;;;;;;;9.50;99.90;;;;;;8408921;28;19936;-70
2023/11/23 03:50:10;;;;;;;;;;;9.60;99.90;;;;;;8412495;28;19940;-71
2023/11/23 03:54:12;;;;;;;;;;;9.50;99.90;;;;;;8396409;28;20001;-71
2023/11/23 03:58:14;;;;;;;;;;;9.50;99.90;;;;;;8406436;28;20639;-70
2023/11/23 04:02:16;;;;;;;;;;;9.50;99.90;;;;;;8398333;28;19924;-71
2023/11/23 04:06:17;;;;;;;;;;;9.40;99.90;;;;;;8410238;28;20320;-71
2023/11/23 04:10:19;;;;;;;;;;;9.40;99.90;;;;;;8384638;28;19924;-70
2023/11/23 04:14:21;;;;;;;;;;;9.40;99.90;;;;;;8410153;28;19928;-70
2023/11/23 04:18:23;;;;;;;;;;;9.30;99.90;;;;;;8397068;28;19932;-70
2023/11/23 04:22:24;;;;;;;;;;;9.30;99.90;;;;;;8393654;28;19970;-71
2023/11/23 04:26:26;;;;;;;;;;;9.20;99.90;;;;;;8399037;28;19924;-70
2023/11/23 04:30:28;;;;;;;;;;;9.20;99.90;;;;;;8406419;28;19931;-70
2023/11/23 04:34:29;;;;;;;;;;;9.20;99.90;;;;;;8402271;28;19924;-71
2023/11/23 04:38:31;;;;;;;;;;;9.20;99.90;;;;;;8411347;28;19924;-71
2023/11/23 04:42:35;;;;;;;;;;;9.20;99.90;;;;;;8378026;28;19985;-71
2023/11/23 04:46:37;;;;;;;;;;;9.20;99.90;;;;;;8411435;28;19926;-71
2023/11/23 04:50:39;;;;;;;;;;;9.20;99.90;;;;;;8401673;28;19994;-71
2023/11/23 04:54:41;;;;;;;;;;;9.20;99.90;;;;;;8387144;28;19924;-71
2023/11/23 04:58:43;;;;;;;;;;;9.20;99.90;;;;;;8412939;28;20368;-71
2023/11/23 05:02:45;;;;;;;;;;;9.10;99.90;;;;;;8409167;28;19931;-71
2023/11/23 05:06:46;;;;;;;;;;;9.10;99.90;;;;;;8401689;28;20091;-71
2023/11/23 05:10:48;;;;;;;;;;;9.10;99.90;;;;;;8388408;28;20268;-71
2023/11/23 05:14:50;;;;;;;;;;;9.20;99.90;;;;;;8383092;28;20304;-71
2023/11/23 05:18:51;;;;;;;;;;;9.20;99.90;;;;;;8389159;28;19932;-71
2023/11/23 05:22:53;;;;;;;;;;;9.20;99.90;;;;;;8379569;28;19932;-71
2023/11/23 05:26:55;;;;;;;;;;;9.20;99.90;;;;;;8367982;28;19929;-70
2023/11/23 05:30:57;;;;;;;;;;;9.20;99.90;;;;;;8374322;28;20330;-71
2023/11/23 05:34:59;;;;;;;;;;;9.30;99.90;;;;;;8358122;28;20320;-71
2023/11/23 05:39:01;;;;;;;;;;;9.30;99.90;;;;;;8385441;28;19928;-71
2023/11/23 05:43:03;;;;;;;;;;;9.30;99.90;;;;;;8367366;28;19925;-71
2023/11/23 05:47:06;;;;;;;;;;;9.30;99.90;;;;;;8377885;28;19925;-70
2023/11/23 05:51:09;;;;;;;;;;;9.30;99.90;;;;;;8374873;28;19928;-71
2023/11/23 05:55:11;;;;;;;;;;;9.30;99.90;;;;;;8365660;28;20384;-71
2023/11/23 05:59:12;;;;;;;;;;;9.30;99.90;;;;;;8378797;28;19970;-71
2023/11/23 06:03:14;;;;;;;;;;;9.30;99.90;;;;;;8372916;28;19932;-71
2023/11/23 06:07:16;;;;;;;;;;;9.30;99.90;;;;;;8370606;28;19928;-71
2023/11/23 06:11:18;;;;;;;;;;;9.30;99.90;;;;;;8375415;28;20012;-70
2023/11/23 06:15:20;;;;;;;;;;;9.30;99.90;;;;;;8374416;28;19928;-71
2023/11/23 06:19:22;;;;;;;;;;;9.30;99.90;;;;;;8368171;28;19956;-71
2023/11/23 06:23:24;;;;;;;;;;;9.30;99.90;;;;;;8394964;28;20295;-71
2023/11/23 06:27:26;;;;;;;;;;;9.30;99.90;;;;;;8351372;28;20338;-71
2023/11/23 06:31:28;;;;;;;;;;;9.30;99.90;;;;;;8350878;28;19925;-71
2023/11/23 06:35:30;;;;;;;;;;;9.30;99.90;;;;;;8385962;28;19924;-71
2023/11/23 06:39:35;;;;;;;;;;;9.30;99.90;;;;;;8380320;28;19925;-70
2023/11/23 06:43:36;;;;;;;;;;;9.30;99.90;;;;;;8390841;28;20287;-70
2023/11/23 06:47:38;;;;;;;;;;;9.30;99.90;;;;;;8365521;28;19924;-71
2023/11/23 06:51:40;;;;;;;;;;;9.30;99.90;;;;;;8356850;28;19924;-70
2023/11/23 06:55:42;;;;;;;;;;;9.20;99.90;;;;;;8381544;28;19932;-70
2023/11/23 06:59:44;;;;;;;;;;;9.20;99.90;;;;;;8365634;28;20398;-71
2023/11/23 07:03:45;;;;;;;;;;;9.20;99.90;;;;;;8388247;28;19925;-71
2023/11/23 07:07:47;;;;;;;;;;;9.20;99.90;;;;;;8371518;28;20005;-70
2023/11/23 07:11:53;;;;;;;;;;;9.30;99.90;;;;;;8383432;28;20365;-71
2023/11/23 07:15:55;;;;;;;;;;;9.30;99.90;;;;;;8358981;28;19933;-70
2023/11/23 07:19:57;;;;;;;;;;;9.30;99.90;;;;;;8372447;28;19932;-71
2023/11/23 07:23:58;;;;;;;;;;;9.30;99.90;;;;;;8379300;28;19971;-71
2023/11/23 07:28:00;;;;;;;;;;;9.30;99.90;;;;;;8386901;28;19971;-70
2023/11/23 07:32:02;;;;;;;;;;;9.40;99.90;;;;;;8384731;28;19928;-71
2023/11/23 07:36:04;;;;;;;;;;;9.40;99.90;;;;;;8375834;28;19928;-71
2023/11/23 07:40:12;;;;;;;;;;;9.40;99.90;;;;;;8376157;28;19930;-70
2023/11/23 07:44:14;;;;;;;;;;;9.40;99.90;;;;;;8376125;28;20107;-70
2023/11/23 07:48:16;;;;;;;;;;;9.40;99.90;;;;;;8371054;28;20497;-71
2023/11/23 07:52:18;;;;;;;;;;;9.50;99.90;;;;;;8372732;28;19925;-71
2023/11/23 07:56:20;;;;;;;;;;;9.50;99.90;;;;;;8367233;28;19932;-71
2023/11/23 08:00:23;;;;;;;;;;;9.50;99.90;;;;;;8385104;28;19932;-70
2023/11/23 08:04:25;;;;;;;;;;;9.60;99.90;;;;;;8383249;28;20451;-71
2023/11/23 08:08:27;;;;;;;;;;;9.70;99.90;;;;;;8381794;28;19929;-71
2023/11/23 08:12:28;;;;;;;;;;;9.80;99.90;;;;;;8370716;28;19929;-70
2023/11/23 08:16:30;;;;;;;;;;;9.80;99.90;;;;;;8374578;28;19925;-71
2023/11/23 08:20:32;;;;;;;;;;;9.90;99.90;;;;;;8399880;28;19964;-71
2023/11/23 08:24:34;;;;;;;;;;;10.00;99.90;;;;;;8362581;28;19931;-71
2023/11/23 08:28:36;;;;;;;;;;;10.10;99.90;;;;;;8391935;28;20426;-70
2023/11/23 08:32:38;;;;;;;;;;;10.10;99.90;;;;;;8391369;28;20443;-71
2023/11/23 08:36:41;;;;;;;;;;;10.20;99.90;;;;;;8380141;28;19932;-71
2023/11/23 08:40:45;;;;;;;;;;;10.30;99.90;;;;;;8379575;28;19925;-70
2023/11/23 08:44:52;;;;;;;;;;;10.30;99.90;;;;;;8381177;28;19931;-70
2023/11/23 08:48:54;;;;;;;;;;;10.40;99.90;;;;;;8380575;28;19931;-71
2023/11/23 08:52:59;;;;;;;;;;;10.40;99.90;;;;;;8381380;28;19928;-71
2023/11/23 08:57:01;;;;;;;;;;;10.50;99.90;;;;;;8385830;28;20380;-70
2023/11/23 09:01:03;;;;;;;;;;;10.50;99.90;;;;;;8381352;28;19978;-70
2023/11/23 09:05:11;;;;;;;;;;;10.70;99.90;;;;;;8384387;28;20257;-71
2023/11/23 09:09:13;;;;;;;;;;;10.90;99.90;;;;;;8383932;28;19931;-70
2023/11/23 09:13:15;;;;;;;;;;;11.00;99.90;;;;;;8380043;28;19931;-70
2023/11/23 09:17:16;;;;;;;;;;;11.10;99.90;;;;;;8378863;28;20375;-70
2023/11/23 09:21:19;;;;;;;;;;;11.10;99.90;;;;;;8388753;28;19924;-71
2023/11/23 09:25:20;;;;;;;;;;;11.10;99.90;;;;;;8391530;28;20332;-71
2023/11/23 09:29:22;;;;;;;;;;;11.20;99.90;;;;;;8378190;28;19928;-70
2023/11/23 09:33:23;;;;;;;;;;;11.30;99.90;;;;;;8371971;28;19925;-71
2023/11/23 09:37:28;;;;;;;;;;;11.40;99.90;;;;;;8382426;28;19924;-70
2023/11/23 09:41:34;;;;;;;;;;;11.40;99.90;;;;;;8381894;28;19939;-71
2023/11/23 09:45:36;;;;;;;;;;;11.40;99.90;;;;;;8388000;28;19931;-70
2023/11/23 09:49:38;;;;;;;;;;;11.50;99.90;;;;;;8378393;28;19932;-71
2023/11/23 09:53:41;;;;;;;;;;;11.60;99.90;;;;;;8383587;28;20407;-70
2023/11/23 09:57:53;;;;;;;;;;;11.70;99.90;;;;;;8380902;28;20366;-70
2023/11/23 10:02:02;;;;;;;;;;;11.90;99.90;;;;;;8386485;28;19925;-70
2023/11/23 10:06:05;;;;;;;;;;;12.00;99.90;;;;;;8381499;28;19925;-71
2023/11/23 10:10:07;;;;;;;;;;;12.10;99.90;;;;;;8383757;28;19928;-72
2023/11/23 10:14:10;;;;;;;;;;;12.30;99.90;;;;;;8371164;28;19986;-71
2023/11/23 10:18:12;;;;;;;;;;;12.60;99.90;;;;;;8382493;28;19947;-70
2023/11/23 10:22:15;;;;;;;;;;;12.80;99.90;;;;;;8412568;28;20323;-71
2023/11/23 10:26:16;;;;;;;;;;;12.80;99.90;;;;;;8373959;28;19932;-71
2023/11/23 10:30:18;;;;;;;;;;;12.80;99.90;;;;;;8387400;28;19925;-71
2023/11/23 10:34:20;;;;;;;;;;;12.80;99.90;;;;;;8377072;28;19975;-70
2023/11/23 10:38:23;;;;;;;;;;;12.70;99.90;;;;;;8383212;28;19955;-71
2023/11/23 10:42:36;;;;;;;;;;;12.70;99.90;;;;;;8385349;28;19989;-71
2023/11/23 10:46:38;;;;;;;;;;;12.70;99.90;;;;;;8389503;28;19938;-71
2023/11/23 10:50:41;;;;;;;;;;;12.70;99.90;;;;;;8386759;28;19946;-71
2023/11/23 10:54:43;;;;;;;;;;;12.70;99.90;;;;;;8390769;28;19931;-70
2023/11/23 10:58:46;;;;;;;;;;;12.80;99.90;;;;;;8383331;28;20420;-71
2023/11/23 11:02:49;;;;;;;;;;;12.90;99.90;;;;;;8400579;28;19924;-71
2023/11/23 11:06:51;;;;;;;;;;;12.90;99.90;;;;;;8395563;28;20324;-70
2023/11/23 11:10:55;;;;;;;;;;;12.90;99.90;;;;;;8364342;28;19940;-71
2023/11/23 11:15:02;;;;;;;;;;;12.90;99.90;;;;;;8372156;28;19925;-71
2023/11/23 11:19:08;;;;;;;;;;;13.00;99.90;;;;;;8351317;28;19967;-70
2023/11/23 11:23:09;;;;;;;;;;;13.00;99.90;;;;;;8364829;28;20230;-70
2023/11/23 11:27:14;;;;;;;;;;;13.00;99.90;;;;;;8370836;28;19925;-70
2023/11/23 11:31:16;;;;;;;;;;;13.10;99.90;;;;;;8383671;28;19928;-71
2023/11/23 11:35:18;;;;;;;;;;;13.10;99.90;;;;;;8385818;28;19924;-71
2023/11/23 11:39:20;;;;;;;;;;;13.10;99.90;;;;;;8390551;28;19986;-71
2023/11/23 11:43:21;;;;;;;;;;;13.10;99.90;;;;;;8372773;28;19925;-70
2023/11/23 11:47:23;;;;;;;;;;;13.10;99.90;;;;;;8389677;28;19925;-70
2023/11/23 11:51:30;;;;;;;;;;;13.10;99.90;;;;;;8395328;28;19932;-71
2023/11/23 11:55:32;;;;;;;;;;;13.10;99.90;;;;;;8385962;28;19928;-71
2023/11/23 11:59:35;;;;;;;;;;;13.10;99.90;;;;;;8400630;28;19925;-71
2023/11/23 12:03:37;;;;;;;;;;;13.10;99.90;;;;;;8397307;28;19974;-71
2023/11/23 12:07:39;;;;;;;;;;;13.10;99.90;;;;;;8397612;28;19966;-71
2023/11/23 12:11:43;;;;;;;;;;;13.10;99.90;;;;;;8392989;28;19924;-71
2023/11/23 12:15:45;;;;;;;;;;;13.10;99.90;;;;;;8391826;28;20397;-70
2023/11/23 12:19:51;;;;;;;;;;;13.10;99.90;;;;;;8398761;28;20350;-71
2023/11/23 12:23:53;;;;;;;;;;;13.10;99.90;;;;;;8383324;28;19931;-71
2023/11/23 12:27:55;;;;;;;;;;;13.10;99.90;;;;;;8390043;28;20115;-71
2023/11/23 12:32:01;;;;;;;;;;;13.10;99.90;;;;;;8389747;28;19924;-71
2023/11/23 12:36:04;;;;;;;;;;;13.10;99.90;;;;;;8392874;28;20324;-71
2023/11/23 12:40:10;;;;;;;;;;;13.20;99.90;;;;;;8400411;28;19939;-71
2023/11/23 12:44:11;;;;;;;;;;;13.30;99.90;;;;;;8391668;28;19932;-71
2023/11/23 12:48:13;;;;;;;;;;;13.30;99.90;;;;;;8384059;28;19925;-70
2023/11/23 12:52:16;;;;;;;;;;;13.40;99.90;;;;;;8390677;28;19925;-71
2023/11/23 12:56:18;;;;;;;;;;;13.50;99.90;;;;;;8406895;28;19924;-71
2023/11/23 13:00:22;;;;;;;;;;;13.60;99.90;;;;;;8391505;28;19924;-71
2023/11/23 13:04:28;;;;;;;;;;;13.60;99.90;;;;;;8381196;28;19985;-70
2023/11/23 13:08:30;;;;;;;;;;;13.50;99.90;;;;;;8398045;28;19977;-71
2023/11/23 13:12:32;;;;;;;;;;;13.50;99.90;;;;;;8376503;28;19932;-71
2023/11/23 13:16:34;;;;;;;;;;;13.40;99.90;;;;;;8391447;28;19931;-70
2023/11/23 13:20:36;;;;;;;;;;;13.30;99.90;;;;;;8387070;28;20395;-71
2023/11/23 13:24:39;;;;;;;;;;;13.30;99.90;;;;;;8401905;28;19963;-71
2023/11/23 13:28:41;;;;;;;;;;;13.20;99.90;;;;;;8383387;28;20341;-71
2023/11/23 13:32:42;;;;;;;;;;;13.20;99.90;;;;;;8376971;28;19931;-71
2023/11/23 13:36:45;;;;;;;;;;;13.20;99.90;;;;;;8393978;28;19924;-71
2023/11/23 13:40:48;;;;;;;;;;;13.20;99.90;;;;;;8387736;28;19932;-71
2023/11/23 13:44:50;;;;;;;;;;;13.20;99.90;;;;;;8373156;28;19970;-71
2023/11/23 13:48:52;;;;;;;;;;;13.20;99.90;;;;;;8378287;28;19924;-71
2023/11/23 13:52:54;;;;;;;;;;;13.10;99.90;;;;;;8377966;28;19941;-71
2023/11/23 13:56:56;;;;;;;;;;;13.10;99.90;;;;;;8376323;28;19955;-71
2023/11/23 14:00:58;;;;;;;;;;;13.10;99.90;;;;;;8384111;28;19924;-71
2023/11/23 14:05:00;;;;;;;;;;;13.10;99.90;;;;;;8366653;28;20338;-72
2023/11/23 14:09:03;;;;;;;;;;;13.10;99.90;;;;;;8379812;28;20283;-71
2023/11/23 14:13:05;;;;;;;;;;;13.10;99.90;;;;;;8398415;28;20001;-71
2023/11/23 14:17:08;;;;;;;;;;;13.10;99.90;;;;;;8360085;28;19924;-71
2023/11/23 14:21:10;;;;;;;;;;;13.00;99.90;;;;;;8384841;28;19924;-71
2023/11/23 14:25:16;;;;;;;;;;;13.10;99.90;;;;;;8379222;28;19932;-71
2023/11/23 14:29:18;;;;;;;;;;;13.00;99.90;;;;;;8364543;28;20287;-71
2023/11/23 14:33:20;;;;;;;;;;;13.00;99.90;;;;;;8378041;28;20017;-71
2023/11/23 14:37:23;;;;;;;;;;;13.00;99.90;;;;;;8366444;28;19931;-71
2023/11/23 14:41:27;;;;;;;;;;;13.00;99.90;;;;;;8364457;28;19936;-71
2023/11/23 14:45:29;;;;;;;;;;;13.00;99.90;;;;;;8379486;28;19986;-71
2023/11/23 14:49:34;;;;;;;;;;;13.10;99.90;;;;;;8383885;28;19947;-71
2023/11/23 14:53:36;;;;;;;;;;;13.40;99.90;;;;;;8380118;28;19925;-71
2023/11/23 14:57:37;;;;;;;;;;;13.50;99.90;;;;;;8356378;28;19932;-71
2023/11/23 15:01:40;;;;;;;;;;;13.50;99.90;;;;;;8386714;28;19928;-71
2023/11/23 15:05:42;;;;;;;;;;;13.40;99.90;;;;;;8373632;28;20075;-71
2023/11/23 15:09:43;;;;;;;;;;;13.30;99.90;;;;;;8382283;28;19978;-71
2023/11/23 15:13:45;;;;;;;;;;;13.20;99.90;;;;;;8373156;28;19931;-71
2023/11/23 15:17:48;;;;;;;;;;;13.10;99.90;;;;;;8366284;28;20643;-71
2023/11/23 15:21:50;;;;;;;;;;;13.10;99.90;;;;;;8373257;28;19928;-71
2023/11/23 15:25:53;;;;;;;;;;;13.00;99.90;;;;;;8385133;28;19930;-71
2023/11/23 15:29:55;;;;;;;;;;;13.00;99.90;;;;;;8386149;28;19928;-71
2023/11/23 15:33:57;;;;;;;;;;;13.00;99.90;;;;;;8366341;28;19925;-71
2023/11/23 15:37:59;;;;;;;;;;;13.00;99.90;;;;;;8377324;28;19938;-71
2023/11/23 15:42:01;;;;;;;;;;;13.00;99.90;;;;;;8377522;28;19963;-71
2023/11/23 15:46:04;;;;;;;;;;;13.00;99.90;;;;;;8358905;28;20207;-71
2023/11/23 15:50:07;;;;;;;;;;;12.90;99.90;;;;;;8378403;28;19996;-71
2023/11/23 15:54:09;;;;;;;;;;;12.90;99.90;;;;;;8369766;28;19963;-71
2023/11/23 15:58:10;;;;;;;;;;;12.90;99.90;;;;;;8383627;28;20372;-71
2023/11/23 16:02:13;;;;;;;;;;;12.90;99.90;;;;;;8375056;28;19928;-71
2023/11/23 16:06:15;;;;;;;;;;;12.90;99.90;;;;;;8383217;28;19929;-71
2023/11/23 16:10:18;;;;;;;;;;;12.90;99.90;;;;;;8386190;28;20335;-71
2023/11/23 16:14:20;;;;;;;;;;;12.80;99.90;;;;;;8365495;28;19939;-71
2023/11/23 16:18:21;;;;;;;;;;;12.80;99.90;;;;;;8368699;28;19983;-71
2023/11/23 16:22:23;;;;;;;;;;;12.80;99.90;;;;;;8360676;28;19931;-71
2023/11/23 16:26:25;;;;;;;;;;;12.80;99.90;;;;;;8358121;28;20001;-71
2023/11/23 16:30:27;;;;;;;;;;;12.80;99.90;;;;;;8379807;28;19931;-71
2023/11/23 16:34:28;;;;;;;;;;;12.80;99.90;;;;;;8377459;28;19929;-71
2023/11/23 16:38:30;;;;;;;;;;;12.80;99.90;;;;;;8371303;28;20360;-71
2023/11/23 16:42:31;;;;;;;;;;;12.80;99.90;;;;;;8355643;28;19947;-71
2023/11/23 16:46:35;;;;;;;;;;;12.80;99.90;;;;;;8356916;28;19935;-71
2023/11/23 16:50:37;;;;;;;;;;;12.80;99.90;;;;;;8352539;28;19978;-71
2023/11/23 16:54:39;;;;;;;;;;;12.80;99.90;;;;;;8356421;28;19944;-71
2023/11/23 16:58:40;;;;;;;;;;;12.80;99.90;;;;;;8353530;28;19986;-70
2023/11/23 17:02:43;;;;;;;;;;;12.80;99.90;;;;;;8336317;28;20399;-71
2023/11/23 17:06:44;;;;;;;;;;;12.80;99.90;;;;;;8361241;28;19928;-71
2023/11/23 17:10:46;;;;;;;;;;;12.80;99.90;;;;;;8350122;28;19928;-71
2023/11/23 17:14:48;;;;;;;;;;;12.90;99.90;;;;;;8353445;28;19924;-71
2023/11/23 17:18:49;;;;;;;;;;;12.90;99.90;;;;;;8357394;28;19925;-71
2023/11/23 17:22:52;;;;;;;;;;;12.90;99.90;;;;;;8360725;28;19929;-72
2023/11/23 17:26:54;;;;;;;;;;;12.90;99.90;;;;;;8356803;28;19968;-71
2023/11/23 17:30:56;;;;;;;;;;;12.90;99.90;;;;;;8362322;28;20306;-71
2023/11/23 17:34:58;;;;;;;;;;;12.90;99.90;;;;;;8353323;28;19925;-71
2023/11/23 17:39:00;;;;;;;;;;;12.90;99.90;;;;;;8357693;28;19928;-71
2023/11/23 17:43:04;;;;;;;;;;;12.90;99.90;;;;;;8354434;28;20642;-71
2023/11/23 17:47:06;;;;;;;;;;;12.90;99.90;;;;;;8356324;28;19983;-71
2023/11/23 17:51:09;;;;;;;;;;;12.90;99.90;;;;;;8355188;28;20258;-71
2023/11/23 17:55:12;;;;;;;;;;;12.90;99.90;;;;;;8351908;28;20009;-71
2023/11/23 17:59:13;;;;;;;;;;;12.80;99.90;;;;;;8350883;28;19944;-71
2023/11/23 18:03:26;;;;;;;;;;;12.80;99.90;;;;;;8352538;28;20384;-71
2023/11/23 18:07:28;;;;;;;;;;;12.80;99.90;;;;;;8363849;28;19929;-71
2023/11/23 18:11:29;;;;;;;;;;;12.80;99.90;;;;;;8359443;28;19928;-71
2023/11/23 18:15:33;;;;;;;;;;;12.80;99.90;;;;;;8356301;28;19924;-71
2023/11/23 18:19:34;;;;;;;;;;;12.80;99.90;;;;;;8361026;28;19924;-71
2023/11/23 18:23:36;;;;;;;;;;;12.80;99.90;;;;;;8353446;28;20339;-71
2023/11/23 18:27:40;;;;;;;;;;;12.80;99.90;;;;;;8357968;28;21276;-71
2023/11/23 18:31:42;;;;;;;;;;;12.80;99.90;;;;;;8358783;28;19936;-71
2023/11/23 18:35:44;;;;;;;;;;;12.70;99.90;;;;;;8357115;28;19925;-71
2023/11/23 18:39:47;;;;;;;;;;;12.60;99.90;;;;;;8360978;28;19967;-71
2023/11/23 18:43:50;;;;;;;;;;;12.50;99.90;;;;;;8353658;28;19944;-71
2023/11/23 18:47:54;;;;;;;;;;;12.40;99.90;;;;;;8354939;28;19925;-71
2023/11/23 18:51:57;;;;;;;;;;;12.40;99.90;;;;;;8356470;28;19964;-71
2023/11/23 18:55:58;;;;;;;;;;;12.30;99.90;;;;;;8356158;28;19925;-70
2023/11/23 19:00:00;;;;;;;;;;;12.30;99.90;;;;;;8355426;28;19957;-71
2023/11/23 19:04:02;;;;;;;;;;;12.30;99.90;;;;;;8357228;28;20380;-72
2023/11/23 19:08:04;;;;;;;;;;;12.30;99.90;;;;;;8357000;28;20031;-71
2023/11/23 19:12:06;;;;;;;;;;;12.20;99.90;;;;;;8363557;28;19933;-72
2023/11/23 19:16:11;;;;;;;;;;;12.20;99.90;;;;;;8372588;28;19960;-71
2023/11/23 19:20:13;;;;;;;;;;;12.20;99.90;;;;;;8374075;28;19929;-72
2023/11/23 19:24:16;;;;;;;;;;;12.20;99.90;;;;;;8358640;28;19939;-71
2023/11/23 19:28:17;;;;;;;;;;;12.20;99.90;;;;;;8362439;28;20425;-71
2023/11/23 19:32:20;;;;;;;;;;;12.20;99.90;;;;;;8361850;28;19924;-71
2023/11/23 19:36:22;;;;;;;;;;;12.10;99.90;;;;;;8364938;28;19929;-72
2023/11/23 19:40:25;;;;;;;;;;;12.10;99.90;;;;;;8354046;28;19925;-71
2023/11/23 19:44:28;;;;;;;;;;;12.10;99.90;;;;;;8350997;28;19929;-71
2023/11/23 19:48:30;;;;;;;;;;;12.10;99.90;;;;;;8343405;28;19939;-71
2023/11/23 19:52:32;;;;;;;;;;;12.10;99.90;;;;;;8371435;28;21674;-71
2023/11/23 19:56:34;;;;;;;;;;;12.10;99.90;;;;;;8363463;28;19951;-71
2023/11/23 20:00:36;;;;;;;;;;;12.10;99.90;;;;;;8369301;28;19987;-71
2023/11/23 20:04:37;;;;;;;;;;;12.10;99.90;;;;;;8367394;28;19932;-72
2023/11/23 20:08:40;;;;;;;;;;;12.10;99.90;;;;;;8366483;28;19928;-71
2023/11/23 20:12:42;;;;;;;;;;;12.10;99.90;;;;;;8369089;28;20080;-71
2023/11/23 20:16:45;;;;;;;;;;;12.10;99.90;;;;;;8372137;28;20335;-71
2023/11/23 20:20:47;;;;;;;;;;;12.00;99.90;;;;;;8373766;28;20003;-71
2023/11/23 20:24:49;;;;;;;;;;;12.00;99.90;;;;;;8356339;28;19929;-71
2023/11/23 20:28:50;;;;;;;;;;;12.00;99.90;;;;;;8372948;28;20322;-71
2023/11/23 20:32:52;;;;;;;;;;;12.00;99.90;;;;;;8376719;28;19925;-72
2023/11/23 20:36:54;;;;;;;;;;;11.80;99.90;;;;;;8375039;28;19932;-71
2023/11/23 20:40:56;;;;;;;;;;;11.60;99.90;;;;;;8373137;28;21147;-71
2023/11/23 20:44:57;;;;;;;;;;;11.40;99.90;;;;;;8375322;28;19932;-72
2023/11/23 20:48:59;;;;;;;;;;;11.30;99.90;;;;;;8375367;28;19968;-71
2023/11/23 20:53:04;;;;;;;;;;;11.20;99.90;;;;;;8357624;28;19925;-71
2023/11/23 20:57:07;;;;;;;;;;;11.10;99.90;;;;;;8357487;28;19986;-71
2023/11/23 21:01:09;;;;;;;;;;;11.10;99.90;;;;;;8374656;28;19964;-71
2023/11/23 21:05:11;;;;;;;;;;;11.10;99.90;;;;;;8368551;28;19940;-71
2023/11/23 21:09:13;;;;;;;;;;;11.10;99.90;;;;;;8374435;28;19978;-71
2023/11/23 21:13:15;;;;;;;;;;;11.00;99.90;;;;;;8374015;28;20303;-71
2023/11/23 21:17:17;;;;;;;;;;;11.00;99.90;;;;;;8373797;28;20581;-71
2023/11/23 21:21:18;;;;;;;;;;;11.00;99.90;;;;;;8362111;28;19931;-71
2023/11/23 21:25:20;;;;;;;;;;;11.00;99.90;;;;;;8370817;28;19924;-72
2023/11/23 21:29:21;;;;;;;;;;;11.00;99.90;;;;;;8369461;28;19925;-71
2023/11/23 21:33:23;;;;;;;;;;;11.00;99.90;;;;;;8367497;28;20534;-72
2023/11/23 21:37:29;;;;;;;;;;;11.00;99.90;;;;;;8359898;28;20272;-71
2023/11/23 21:41:31;;;;;;;;;;;11.00;99.90;;;;;;8372536;28;19933;-71
2023/11/23 21:45:33;;;;;;;;;;;11.00;99.90;;;;;;8358243;28;19925;-71
2023/11/23 21:49:35;;;;;;;;;;;11.00;99.90;;;;;;8374179;28;20009;-71
2023/11/23 21:53:37;;;;;;;;;;;11.00;99.90;;;;;;8370546;28;19925;-71
2023/11/23 21:57:38;;;;;;;;;;;11.00;99.90;;;;;;8355924;28;19924;-71
2023/11/23 22:01:40;;;;;;;;;;;11.00;99.90;;;;;;8369618;28;20000;-71
2023/11/23 22:05:42;;;;;;;;;;;10.90;99.90;;;;;;8389436;28;19940;-71
2023/11/23 22:09:44;;;;;;;;;;;10.90;99.90;;;;;;8381832;28;19924;-71
2023/11/23 22:13:46;;;;;;;;;;;10.80;99.90;;;;;;8370454;28;20509;-71
2023/11/23 22:17:47;;;;;;;;;;;10.80;99.90;;;;;;8389917;28;20288;-71
2023/11/23 22:21:50;;;;;;;;;;;10.70;99.90;;;;;;8370364;28;19928;-71
2023/11/23 22:25:53;;;;;;;;;;;10.60;99.90;;;;;;8388449;28;21275;-71
2023/11/23 22:29:55;;;;;;;;;;;10.60;99.90;;;;;;8391155;28;19925;-72
2023/11/23 22:33:58;;;;;;;;;;;10.60;99.90;;;;;;8368391;28;20253;-71
2023/11/23 22:38:05;;;;;;;;;;;10.50;99.90;;;;;;8420124;28;20350;-72
2023/11/23 22:42:08;;;;;;;;;;;10.50;99.90;;;;;;8374032;28;19925;-71
2023/11/23 22:56:17;;;;;;;;;;;10.50;99.90;;;;;;8385217;28;20047;-71
2023/11/23 23:00:26;;;;;;;;;;;10.40;99.90;;;;;;8380679;28;20388;-71
2023/11/23 23:04:28;;;;;;;;;;;10.40;99.90;;;;;;8378057;28;20007;-71
2023/11/23 23:08:30;;;;;;;;;;;10.40;99.90;;;;;;8385687;28;19936;-72
2023/11/23 23:12:31;;;;;;;;;;;10.40;99.90;;;;;;8380168;28;19924;-72
2023/11/23 23:16:33;;;;;;;;;;;10.40;99.90;;;;;;8383372;28;20356;-71
2023/11/23 23:20:35;;;;;;;;;;;10.40;99.90;;;;;;8418711;28;19925;-72
2023/11/23 23:24:36;;;;;;;;;;;10.30;99.90;;;;;;8384229;28;19925;-71
2023/11/23 23:28:38;;;;;;;;;;;10.30;99.90;;;;;;8382633;28;19925;-72
2023/11/23 23:32:40;;;;;;;;;;;10.20;99.90;;;;;;8364556;28;19925;-71
2023/11/23 23:36:42;;;;;;;;;;;10.10;99.90;;;;;;8354644;28;19929;-71
2023/11/23 23:40:46;;;;;;;;;;;10.00;99.90;;;;;;8382290;28;20942;-71
2023/11/23 23:44:47;;;;;;;;;;;9.80;99.90;;;;;;8392959;28;19924;-71
2023/11/23 23:48:49;;;;;;;;;;;9.60;99.90;;;;;;8390179;28;20366;-71